Warning: Javascript must be enabled to use all the features on this page!


Page Loading - Please Wait...

Click to hideNews Bulletins

Peak Streamflow for the Nation

USGS 04262500 WEST BRANCH OSWEGATCHIE RIVER NEAR HARRISVILLE NY

St. Lawrence County, New York
Hydrologic Unit Code 04150302
Latitude  44°11'08", Longitude  75°19'51" NAD83
Drainage area 258  square miles
Gage datum 737.97 feet above NAVD88
Output formats
Table
Graph
Tab-separated file
peakfq (watstore) format
Reselect output format
Water
Year
Date Gage
Height
(feet)
Stream-
flow
(cfs)
1917 1917-03-28 8.10 4,880
1918 1918-04-03 7.40 3,980
1919 1919-04-13 6.85 3,360
1920 1920-03-27 6.90 3,410
1921 1921-03-22 7.90 4,580
1922 1922-06-23 7.60 4,220
1923 1923-04-07 7.20 3,740
1924 1924-01-12 6.80 3,360
1925 1924-10-02 7.90 4,640
1926 1926-04-26 8.80 5,760
1927 1927-03-15 7.00 3,600
1928 1928-04-08 8.00 4,780
1929 1929-01-20 7.30 3,940
1930 1930-01-09 9.60 6,920
1931 1931-04-12 6.80 3,500
1932 1932-04-11 7.00 3,720
1933 1932-10-08 7.60 4,380
1934 1934-04-02 5.95 2,820
1935 1935-01-11 7.11 4,140
1936 1936-03-19 7.331 4,180
1937 1937-04-07 7.17 4,210
1938 1938-03-25 8.22 4,970
1939 1939-03-28 5.99 2,620
1940 1940-04-19 7.38 4,050
1941 1940-12-31 6.83 3,580
1942 1942-04-08 5.97 2,700
1943 1943-03-18 6.60 3,330
1944 1944-04-26 6.55 3,280
1945 1945-03-19 7.22 4,010
1946 1946-03-10 6.93 3,690
1947 1947-04-13 9.03 6,180
1948 1948-03-23 8.85 5,940
1949 1949-03-29 7.23 4,070
1950 1950-04-06 6.73 3,550
1951 1951-04-01 7.66 4,550
1952 1952-04-07 5.75 2,580
1953 1952-12-13 5.88 2,700
1954 1954-02-22 8.22 5,420
1955 1955-03-12 7.37 4,460
1956 1956-04-07 6.94 3,980
1957 1957-01-25 5.58 2,560
1958 1957-12-22 7.19 4,260
1959 1959-04-07 7.25 4,140
1960 1960-04-05 8.34 5,640
1961 1961-02-27 6.70 3,300
1962 1962-04-09 6.71 3,530
1963 1963-04-05 9.28 6,740
1964 1964-03-07 6.23 3,210
1965 1965-04-14 5.61 2,590
1966 1966-03-25 5.41 2,390
1967 1967-04-04 7.60 4,560
1968 1968-03-24 5.85 2,630
1969 1969-04-11 7.92 4,940
1970 1970-04-19 5.96 2,740
1971 1971-05-05 7.23 4,120
1972 1972-05-04 7.56 4,510
1973 1973-01-02 6.41 3,300
1974 1974-04-05 8.23 5,340
1975 1975-04-20 7.75 4,740
1976 1976-03-22 7.37 4,310
1977 1977-03-15 9.31 7,080
1978 1978-04-14 6.82 4,020
1979 1979-03-26 7.33 4,580
1980 1979-11-28 6.54 3,730
1981 1981-02-22 7.351 4,000
1982 1982-04-19 7.65 4,960
1983 1983-04-27 5.34 2,340
1984 1983-12-15 8.65 5,950
1985 1984-12-30 8.74 6,070
1986 1986-03-20 6.70 3,730
1987 1987-04-01 5.97 3,020
1988 1988-03-27 6.88 3,910
1989 1989-03-30 7.60 4,690
1990 1990-03-18 8.10 5,280
1991 1991-03-05 7.27 4,330
1992 1992-04-13 7.38 4,450
1993 1993-04-11 9.52 7,090
1994 1994-04-17 8.70 6,010
1995 1995-01-17 7.95 5,100
1996 1996-01-20 8.87 6,230
1997 1996-11-10 7.94 5,090
1998 1998-01-09 10.64 8,700
1999 1999-01-25 8.21 5,410
2000 2000-02-28 8.18 5,370
2001 2001-04-13 8.20 5,400
2002 2002-04-15 7.57 4,660
2003 2003-03-30 6.892 3,920
2004 2004-03-28 6.78 3,810
2005 2005-04-04 7.44 4,510
2006 2005-12-01 6.44 3,460
2007 2007-03-29 6.24 3,260
2008 2008-01-10 6.26 3,130
2009 2008-12-29 7.22 4,120
2010 2010-01-27 5.60 2,520
2011 2010-10-02 7.37 4,280
2012 2012-03-18 4.92 2,140
2013 2013-02-02 6.02 3,140
2014 2014-04-16 9.10 6,200
2015 2015-06-11 6.61 3,540
2016 2016-02-26 6.16 3,100
2017 2016-10-23 7.37 4,260
2018 2017-10-31 8.49 5,780
2019 2019-04-10 6.01 3,130
2020 2019-11-02 7.21 4,340
?
  Peak Gage-Height Qualification Codes.